createdAt,value
2016-08-12T00:00:44.534Z,56.71
2016-08-12T00:01:40.190Z,56.83
2016-08-12T00:04:45.633Z,57.04
2016-08-12T00:05:53.407Z,57.12
2016-08-12T00:06:38.535Z,57.11
2016-08-12T00:07:49.519Z,57.05
2016-08-12T00:08:53.008Z,57.09
2016-08-12T00:09:51.867Z,57.08
2016-08-12T00:10:57.826Z,57.13
2016-08-12T00:11:39.119Z,57.09
2016-08-12T00:12:52.786Z,57.15
2016-08-12T00:13:44.936Z,57.18
2016-08-12T00:14:49.431Z,57.18
2016-08-12T00:15:49.875Z,57.16
2016-08-12T00:17:40.711Z,57.19
2016-08-12T00:18:58.968Z,57.15
2016-08-12T00:20:42.611Z,57.21
2016-08-12T00:21:40.163Z,57.24
2016-08-12T00:22:52.472Z,57.23
2016-08-12T00:23:40.843Z,57.25
2016-08-12T00:24:51.696Z,57.25
2016-08-12T00:25:51.812Z,57.25
2016-08-12T00:26:43.648Z,57.29
2016-08-12T00:27:36.688Z,57.29
2016-08-12T00:29:42.113Z,57.26
2016-08-12T00:30:51.861Z,57.25
2016-08-12T00:31:48.077Z,57.24
2016-08-12T00:33:38.014Z,57.27
2016-08-12T00:34:42.487Z,57.29
2016-08-12T00:35:47.851Z,57.32
2016-08-12T00:36:57.003Z,57.30
2016-08-12T00:38:45.122Z,57.31
2016-08-12T00:40:59.878Z,57.28
2016-08-12T00:41:44.853Z,57.32
2016-08-12T00:42:55.718Z,57.35
2016-08-12T00:43:54.355Z,57.37
2016-08-12T00:44:51.245Z,57.35
2016-08-12T00:45:43.727Z,57.37
2016-08-12T00:46:43.598Z,57.40
2016-08-12T00:47:38.857Z,57.41
2016-08-12T00:48:48.871Z,57.45
2016-08-12T00:49:44.625Z,57.47
2016-08-12T00:50:45.485Z,57.43
2016-08-12T00:51:40.347Z,57.47
2016-08-12T00:52:50.361Z,57.53
2016-08-12T00:53:32.489Z,57.50
2016-08-12T00:54:38.515Z,57.46
2016-08-12T00:55:49.385Z,57.49
2016-08-12T00:56:56.193Z,57.52
2016-08-12T00:57:38.666Z,57.53
2016-08-12T00:58:48.317Z,57.57
2016-08-12T00:59:42.734Z,57.56
2016-08-12T01:00:55.484Z,57.58
2016-08-12T01:01:49.357Z,57.59
2016-08-12T01:02:45.212Z,57.59
2016-08-12T01:03:57.912Z,57.58
2016-08-12T01:04:54.325Z,56.82
2016-08-12T01:05:43.876Z,57.47
2016-08-12T01:06:49.092Z,57.53
2016-08-12T01:07:48.473Z,57.56
2016-08-12T01:08:59.180Z,57.62
2016-08-12T01:09:47.254Z,57.56
2016-08-12T01:11:51.040Z,57.61
2016-08-12T01:12:37.319Z,57.59
2016-08-12T01:13:48.274Z,56.65
2016-08-12T01:14:42.048Z,56.78
2016-08-12T01:15:47.399Z,57.36
2016-08-12T01:16:43.930Z,57.48
2016-08-12T01:17:48.509Z,57.52
2016-08-12T01:18:58.392Z,57.57
2016-08-12T01:19:54.031Z,57.62
2016-08-12T01:20:43.771Z,57.64
2016-08-12T01:21:39.443Z,57.68
2016-08-12T01:22:45.333Z,57.70
2016-08-12T01:23:51.610Z,57.68
2016-08-12T01:24:51.569Z,57.68
2016-08-12T01:25:51.868Z,57.73
2016-08-12T01:26:54.719Z,57.68
2016-08-12T01:27:56.810Z,57.70
2016-08-12T01:28:53.416Z,57.65
2016-08-12T01:29:37.978Z,56.81
2016-08-12T01:31:38.610Z,56.58
2016-08-12T01:33:45.285Z,57.67
2016-08-12T01:34:45.975Z,57.71
2016-08-12T01:35:41.948Z,57.79
2016-08-12T01:36:56.979Z,57.79
2016-08-12T01:37:44.026Z,57.86
2016-08-12T01:38:52.960Z,57.90
2016-08-12T01:39:53.844Z,57.90
2016-08-12T01:40:49.352Z,57.93
2016-08-12T01:41:32.419Z,57.93
2016-08-12T01:42:43.312Z,57.94
2016-08-12T01:45:51.675Z,58.02
2016-08-12T01:46:54.848Z,57.97
2016-08-12T01:48:37.994Z,57.99
2016-08-12T01:49:44.710Z,58.00
2016-08-12T01:51:08.537Z,57.99
2016-08-12T01:51:32.645Z,57.98
2016-08-12T01:52:48.069Z,57.99
2016-08-12T01:53:44.032Z,57.99
2016-08-12T01:56:54.722Z,58.04
2016-08-12T01:57:43.203Z,58.04
2016-08-12T01:59:01.685Z,58.04
2016-08-12T01:59:54.961Z,58.06
2016-08-12T02:00:53.387Z,58.10
2016-08-12T02:01:38.940Z,58.06
2016-08-12T02:02:42.653Z,58.11
2016-08-12T02:03:43.557Z,58.12
2016-08-12T02:04:38.746Z,58.15
2016-08-12T02:05:53.991Z,58.20
2016-08-12T02:06:44.148Z,58.21
2016-08-12T02:07:48.141Z,58.20
2016-08-12T02:08:52.587Z,58.18
2016-08-12T02:09:43.791Z,58.21
2016-08-12T02:10:54.535Z,58.21
2016-08-12T02:11:43.393Z,58.26
2016-08-12T02:12:43.310Z,58.20
2016-08-12T02:13:49.426Z,58.18
2016-08-12T02:14:43.652Z,58.21
2016-08-12T02:15:42.992Z,58.20
2016-08-12T02:16:43.633Z,58.22
2016-08-12T02:17:44.740Z,58.24
2016-08-12T02:18:43.660Z,58.23
2016-08-12T02:19:51.277Z,58.27
2016-08-12T02:20:53.761Z,58.23
2016-08-12T02:21:37.363Z,58.26
2016-08-12T02:22:49.326Z,58.25
2016-08-12T02:23:51.322Z,58.24
2016-08-12T02:24:41.629Z,58.23
2016-08-12T02:25:47.811Z,58.23
2016-08-12T02:26:43.866Z,58.30
2016-08-12T02:27:36.109Z,58.32
2016-08-12T02:28:33.655Z,58.38
2016-08-12T02:29:46.053Z,58.35
2016-08-12T02:30:51.654Z,58.39
2016-08-12T02:32:32.641Z,58.39
2016-08-12T02:33:22.237Z,58.27
2016-08-12T02:34:37.726Z,57.49
2016-08-12T02:35:50.258Z,57.30
2016-08-12T02:36:54.158Z,57.59
2016-08-12T02:37:38.485Z,58.15
2016-08-12T02:38:49.975Z,58.31
2016-08-12T02:39:47.909Z,58.42
2016-08-12T02:41:46.432Z,58.55
2016-08-12T02:42:42.281Z,58.55
2016-08-12T02:44:15.231Z,58.61
2016-08-12T02:47:50.806Z,58.60
2016-08-12T02:48:45.282Z,58.66
2016-08-12T02:50:45.000Z,58.72
2016-08-12T02:51:32.271Z,58.71
2016-08-12T02:52:51.694Z,58.69
2016-08-12T02:53:47.237Z,58.64
2016-08-12T02:54:48.545Z,58.70
2016-08-12T02:55:54.892Z,58.70
2016-08-12T02:56:44.228Z,58.74
2016-08-12T02:57:37.648Z,58.72
2016-08-12T02:58:43.754Z,58.73
2016-08-12T02:59:48.924Z,58.73
2016-08-12T03:00:52.808Z,58.74
2016-08-12T03:02:00.216Z,58.76
2016-08-12T03:02:43.674Z,58.79
2016-08-12T03:03:46.034Z,58.78
2016-08-12T03:04:46.910Z,58.82
2016-08-12T03:05:52.086Z,58.79
2016-08-12T03:06:44.723Z,58.84
2016-08-12T03:07:44.054Z,58.82
2016-08-12T03:08:54.306Z,58.80
2016-08-12T03:09:44.159Z,58.84
2016-08-12T03:10:49.159Z,58.87
2016-08-12T03:11:43.126Z,58.83
2016-08-12T03:12:50.468Z,58.86
2016-08-12T03:13:45.661Z,58.87
2016-08-12T03:14:56.067Z,58.90
2016-08-12T03:16:43.575Z,58.89
2016-08-12T03:17:44.148Z,58.85
2016-08-12T03:18:43.639Z,58.89
2016-08-12T03:19:52.918Z,58.83
2016-08-12T03:20:47.544Z,58.89
2016-08-12T03:21:43.160Z,58.94
2016-08-12T03:22:43.560Z,58.96
2016-08-12T03:24:16.753Z,58.91
2016-08-12T03:25:40.033Z,58.96
2016-08-12T03:26:53.159Z,58.99
2016-08-12T03:27:47.329Z,58.98
2016-08-12T03:28:44.016Z,59.01
2016-08-12T03:29:48.333Z,58.98
2016-08-12T03:30:48.152Z,58.98
2016-08-12T03:31:43.003Z,58.99
2016-08-12T03:32:48.055Z,59.02
2016-08-12T03:33:42.293Z,58.99
2016-08-12T03:34:48.833Z,59.01
2016-08-12T03:35:50.274Z,59.04
2016-08-12T03:37:49.653Z,59.00
2016-08-12T03:38:47.203Z,58.97
2016-08-12T03:39:57.347Z,58.91
2016-08-12T03:40:45.080Z,58.86
2016-08-12T03:41:43.821Z,58.79
2016-08-12T03:42:54.501Z,58.76
2016-08-12T03:43:44.553Z,58.75
2016-08-12T03:44:42.372Z,58.74
2016-08-12T03:46:00.191Z,58.73
2016-08-12T03:46:44.194Z,58.71
2016-08-12T03:47:50.090Z,58.68
2016-08-12T03:48:47.223Z,58.54
2016-08-12T03:49:38.004Z,57.71
2016-08-12T03:50:46.750Z,57.49
2016-08-12T03:52:48.777Z,57.31
2016-08-12T03:53:48.628Z,57.28
2016-08-12T03:54:55.952Z,57.26
2016-08-12T03:55:38.052Z,58.17
2016-08-12T03:56:37.226Z,58.33
2016-08-12T03:57:46.052Z,58.44
2016-08-12T03:58:44.575Z,58.49
2016-08-12T03:59:52.822Z,58.56
2016-08-12T04:00:36.201Z,58.57
2016-08-12T04:02:42.882Z,58.59
2016-08-12T04:04:38.966Z,58.62
2016-08-12T04:06:44.132Z,58.62
2016-08-12T04:07:42.733Z,58.66
2016-08-12T04:08:46.392Z,58.63
2016-08-12T04:09:44.978Z,58.64
2016-08-12T04:10:48.864Z,58.61
2016-08-12T04:11:32.860Z,57.70
2016-08-12T04:12:47.191Z,57.50
2016-08-12T04:13:43.669Z,57.40
2016-08-12T04:14:39.042Z,57.28
2016-08-12T04:15:48.089Z,57.28
2016-08-12T04:16:44.556Z,57.29
2016-08-12T04:19:47.846Z,57.22
2016-08-12T04:20:46.586Z,57.18
2016-08-12T04:21:39.385Z,57.52
2016-08-12T04:22:46.030Z,58.14
2016-08-12T04:23:49.539Z,58.34
2016-08-12T04:24:36.602Z,58.42
2016-08-12T04:25:46.081Z,58.47
2016-08-12T04:26:47.080Z,58.50
2016-08-12T04:27:44.865Z,58.55
2016-08-12T04:28:55.572Z,58.64
2016-08-12T04:29:46.272Z,57.59
2016-08-12T04:30:43.334Z,57.44
2016-08-12T04:31:44.112Z,58.27
2016-08-12T04:32:44.405Z,58.42
2016-08-12T04:33:51.825Z,58.50
2016-08-12T04:34:53.271Z,58.54
2016-08-12T04:35:55.642Z,58.56
2016-08-12T04:36:45.334Z,58.60
2016-08-12T04:37:48.171Z,58.61
2016-08-12T04:38:45.092Z,58.78
2016-08-12T04:39:48.240Z,58.79
2016-08-12T04:40:58.872Z,58.89
2016-08-12T04:41:42.151Z,59.07
2016-08-12T04:42:38.794Z,59.02
2016-08-12T04:44:00.187Z,59.23
2016-08-12T04:44:52.598Z,59.10
2016-08-12T04:45:42.748Z,58.92
2016-08-12T04:46:44.959Z,59.13
2016-08-12T04:48:44.619Z,58.91
2016-08-12T04:49:43.481Z,58.87
2016-08-12T04:50:38.047Z,58.97
2016-08-12T04:51:32.705Z,59.13
2016-08-12T04:52:49.359Z,58.94
2016-08-12T04:53:45.786Z,58.89
2016-08-12T04:55:52.654Z,58.85
2016-08-12T04:56:38.320Z,58.89
2016-08-12T04:57:43.392Z,58.79
2016-08-12T04:58:43.983Z,58.84
2016-08-12T04:59:54.367Z,58.86
2016-08-12T05:00:52.703Z,58.95
2016-08-12T05:01:47.341Z,58.95
2016-08-12T05:02:33.102Z,58.99
2016-08-12T05:03:36.024Z,58.93
2016-08-12T05:04:50.612Z,58.89
2016-08-12T05:05:44.750Z,59.00
2016-08-12T05:07:36.893Z,58.91
2016-08-12T05:08:47.325Z,58.91
2016-08-12T05:09:43.814Z,58.90
2016-08-12T05:10:43.321Z,58.90
2016-08-12T05:11:49.630Z,58.86
2016-08-12T05:12:47.797Z,58.87
2016-08-12T05:13:38.686Z,58.87
2016-08-12T05:15:54.818Z,58.89
2016-08-12T05:17:19.065Z,58.91
2016-08-12T05:18:02.326Z,58.92
2016-08-12T05:18:51.221Z,58.93
2016-08-12T05:19:42.226Z,58.93
2016-08-12T05:20:43.151Z,58.94
2016-08-12T05:21:51.548Z,58.93
2016-08-12T05:22:33.642Z,58.97
2016-08-12T05:23:43.137Z,58.00
2016-08-12T05:24:49.145Z,57.78
2016-08-12T05:25:47.953Z,57.66
2016-08-12T05:26:44.259Z,57.95
2016-08-12T05:27:51.605Z,58.57
2016-08-12T05:28:40.507Z,58.77
2016-08-12T05:29:51.272Z,58.82
2016-08-12T05:30:45.652Z,58.89
2016-08-12T05:32:48.670Z,58.88
2016-08-12T05:33:43.895Z,58.90
2016-08-12T05:34:48.259Z,58.90
2016-08-12T05:35:47.754Z,58.92
2016-08-12T05:36:44.629Z,58.93
2016-08-12T05:37:43.170Z,58.93
2016-08-12T05:38:28.085Z,58.95
2016-08-12T05:39:47.987Z,58.96
2016-08-12T05:40:31.216Z,58.90
2016-08-12T05:41:30.777Z,58.92
2016-08-12T05:42:31.479Z,58.98
2016-08-12T05:43:31.393Z,59.05
2016-08-12T05:44:44.517Z,59.10
2016-08-12T05:45:43.974Z,59.18
2016-08-12T05:46:35.088Z,59.27
2016-08-12T05:47:55.357Z,59.34
2016-08-12T05:48:44.335Z,59.42
2016-08-12T05:49:38.677Z,59.47
2016-08-12T05:50:34.243Z,59.50
2016-08-12T05:51:37.076Z,59.55
2016-08-12T05:52:40.924Z,59.60
2016-08-12T05:53:43.567Z,59.56
2016-08-12T05:54:39.156Z,59.41
2016-08-12T05:55:48.640Z,58.56
2016-08-12T05:56:47.545Z,58.48
2016-08-12T05:57:36.616Z,58.41
2016-08-12T05:58:37.899Z,58.36
2016-08-12T05:59:43.354Z,58.31
2016-08-12T06:00:46.690Z,58.35
2016-08-12T06:01:43.996Z,58.35
2016-08-12T06:02:39.927Z,58.72
2016-08-12T06:03:35.948Z,59.32
2016-08-12T06:04:35.115Z,59.53
2016-08-12T06:05:38.545Z,59.60
2016-08-12T06:07:44.578Z,59.72
2016-08-12T06:08:48.816Z,59.73
2016-08-12T06:09:48.640Z,59.76
2016-08-12T06:11:40.248Z,59.80
2016-08-12T06:12:39.008Z,59.80
2016-08-12T06:13:48.088Z,59.77
2016-08-12T06:14:42.671Z,59.69
2016-08-12T06:15:49.113Z,59.83
2016-08-12T06:16:37.309Z,59.79
2016-08-12T06:17:37.162Z,59.82
2016-08-12T06:18:48.134Z,59.88
2016-08-12T06:19:30.598Z,59.96
2016-08-12T06:20:48.320Z,59.89
2016-08-12T06:21:33.612Z,59.99
2016-08-12T06:22:52.934Z,60.01
2016-08-12T06:23:37.780Z,60.11
2016-08-12T06:24:30.268Z,60.25
2016-08-12T06:25:35.806Z,60.47
2016-08-12T06:26:40.273Z,60.44
2016-08-12T06:27:42.805Z,60.55
2016-08-12T06:28:26.200Z,60.56
2016-08-12T06:29:37.679Z,60.60
2016-08-12T06:30:47.836Z,60.66
2016-08-12T06:31:32.145Z,60.70
2016-08-12T06:32:42.905Z,60.69
2016-08-12T06:33:43.746Z,60.64
2016-08-12T06:34:53.195Z,60.70
2016-08-12T06:35:40.896Z,60.72
2016-08-12T06:36:32.657Z,60.72
2016-08-12T06:37:40.346Z,60.72
2016-08-12T06:38:42.376Z,60.73
2016-08-12T06:39:31.926Z,60.73
2016-08-12T06:40:48.391Z,60.74
2016-08-12T06:41:41.554Z,60.60
2016-08-12T06:43:42.395Z,59.58
2016-08-12T06:44:37.598Z,59.47
2016-08-12T06:45:45.169Z,59.35
2016-08-12T06:46:43.106Z,59.35
2016-08-12T06:47:41.854Z,59.34
2016-08-12T06:48:35.244Z,59.39
2016-08-12T06:49:44.035Z,59.35
2016-08-12T06:50:38.160Z,59.31
2016-08-12T06:51:37.636Z,59.62
2016-08-12T06:52:59.067Z,60.31
2016-08-12T06:53:42.280Z,60.56
2016-08-12T06:54:43.297Z,60.61
2016-08-12T06:55:44.816Z,60.65
2016-08-12T06:56:46.127Z,60.80
2016-08-12T06:57:44.949Z,60.81
2016-08-12T06:58:41.885Z,60.75
2016-08-12T06:59:40.789Z,60.76
2016-08-12T07:00:32.803Z,60.76
2016-08-12T07:01:52.718Z,60.79
2016-08-12T07:02:43.575Z,60.77
2016-08-12T07:03:43.506Z,60.81
2016-08-12T07:04:37.339Z,60.84
2016-08-12T07:05:41.896Z,60.84
2016-08-12T07:06:43.949Z,60.81
2016-08-12T07:07:44.340Z,60.82
2016-08-12T07:08:46.391Z,60.82
2016-08-12T07:09:40.764Z,60.84
2016-08-12T07:10:51.096Z,60.84
2016-08-12T07:11:36.591Z,60.83
2016-08-12T07:12:34.205Z,60.82
2016-08-12T07:13:48.697Z,60.85
2016-08-12T07:14:43.098Z,60.83
2016-08-12T07:15:34.135Z,60.81
2016-08-12T07:16:42.928Z,60.87
2016-08-12T07:17:39.031Z,60.79
2016-08-12T07:18:38.259Z,60.76
2016-08-12T07:19:31.070Z,60.75
2016-08-12T07:20:40.610Z,60.69
2016-08-12T07:21:35.149Z,60.70
2016-08-12T07:22:44.907Z,60.73
2016-08-12T07:23:33.056Z,60.73
2016-08-12T07:24:36.748Z,60.76
2016-08-12T07:25:42.819Z,60.80
2016-08-12T07:26:53.879Z,60.80
2016-08-12T07:27:36.747Z,60.90
2016-08-12T07:28:27.779Z,60.88
2016-08-12T07:29:34.970Z,60.83
2016-08-12T07:30:39.229Z,60.82
2016-08-12T07:31:34.067Z,60.84
2016-08-12T07:32:41.766Z,60.83
2016-08-12T07:33:46.338Z,60.84
2016-08-12T07:34:37.832Z,60.85
2016-08-12T07:35:44.552Z,60.85
2016-08-12T07:36:43.801Z,60.91
2016-08-12T07:37:37.981Z,60.92
2016-08-12T07:38:43.671Z,60.97
2016-08-12T07:39:49.056Z,60.85
2016-08-12T07:40:42.758Z,59.99
2016-08-12T07:41:47.723Z,59.83
2016-08-12T07:42:45.801Z,59.79
2016-08-12T07:43:46.721Z,60.62
2016-08-12T07:44:39.361Z,60.85
2016-08-12T07:45:32.357Z,61.20
2016-08-12T07:46:34.833Z,61.57
2016-08-12T07:47:38.285Z,61.63
2016-08-12T07:48:33.165Z,61.69
2016-08-12T07:49:42.375Z,61.93
2016-08-12T07:50:41.919Z,62.07
2016-08-12T07:51:38.883Z,62.16
2016-08-12T07:52:26.524Z,62.22
2016-08-12T07:53:31.045Z,62.26
2016-08-12T07:54:30.519Z,62.26
2016-08-12T07:55:43.180Z,62.17
2016-08-12T07:56:27.835Z,62.11
2016-08-12T07:57:33.390Z,62.01
2016-08-12T07:58:38.253Z,61.96
2016-08-12T07:59:32.211Z,61.93
2016-08-12T08:00:30.833Z,61.88
2016-08-12T08:01:48.651Z,61.85
2016-08-12T08:02:33.440Z,61.83
2016-08-12T08:03:32.570Z,61.74
2016-08-12T08:04:28.105Z,61.80
2016-08-12T08:05:43.491Z,61.92
2016-08-12T08:06:31.937Z,61.84
2016-08-12T08:07:39.745Z,61.80
2016-08-12T08:08:39.111Z,61.75
2016-08-12T08:09:31.642Z,61.71
2016-08-12T08:10:44.725Z,61.72
2016-08-12T08:11:37.456Z,61.80
2016-08-12T08:12:49.357Z,61.85
2016-08-12T08:13:34.490Z,62.09
2016-08-12T08:14:39.873Z,62.32
2016-08-12T08:15:25.506Z,62.15
2016-08-12T08:16:38.818Z,62.04
2016-08-12T08:17:32.226Z,62.30
2016-08-12T08:18:34.725Z,62.34
2016-08-12T08:19:25.184Z,62.27
2016-08-12T08:20:31.155Z,62.54
2016-08-12T08:21:41.134Z,62.52
2016-08-12T08:22:34.325Z,62.55
2016-08-12T08:23:46.255Z,62.40
2016-08-12T08:24:38.798Z,63.21
2016-08-12T08:25:41.211Z,63.23
2016-08-12T08:26:36.901Z,63.36
2016-08-12T08:27:32.075Z,63.03
2016-08-12T08:28:37.149Z,63.22
2016-08-12T08:29:40.135Z,63.00
2016-08-12T08:30:37.288Z,63.03
2016-08-12T08:31:36.415Z,63.08
2016-08-12T08:32:27.713Z,63.66
2016-08-12T08:33:35.979Z,63.69
2016-08-12T08:36:41.621Z,63.03
2016-08-12T08:37:42.896Z,63.21
2016-08-12T08:38:38.550Z,63.13
2016-08-12T08:39:32.852Z,63.09
2016-08-12T08:40:36.208Z,63.10
2016-08-12T08:41:38.216Z,63.04
2016-08-12T08:42:36.893Z,62.94
2016-08-12T08:43:48.386Z,62.94
2016-08-12T08:44:49.436Z,62.90
2016-08-12T08:45:42.885Z,62.84
2016-08-12T08:46:40.446Z,62.78
2016-08-12T08:47:44.976Z,62.77
2016-08-12T08:48:41.097Z,62.71
2016-08-12T08:50:32.538Z,62.53
2016-08-12T08:51:44.159Z,61.60
2016-08-12T08:52:43.129Z,61.57
2016-08-12T08:53:35.912Z,61.63
2016-08-12T08:54:44.810Z,61.39
2016-08-12T08:55:36.973Z,61.51
2016-08-12T08:56:36.527Z,61.66
2016-08-12T08:57:39.263Z,63.05
2016-08-12T08:58:35.790Z,63.15
2016-08-12T08:59:46.109Z,62.95
2016-08-12T09:00:38.209Z,63.10
2016-08-12T09:01:43.098Z,62.86
2016-08-12T09:02:32.433Z,63.11
2016-08-12T09:03:40.343Z,63.14
2016-08-12T09:04:50.989Z,62.99
2016-08-12T09:05:37.137Z,63.02
2016-08-12T09:06:36.199Z,63.05
2016-08-12T09:07:35.054Z,63.01
2016-08-12T09:09:30.767Z,63.09
2016-08-12T09:10:42.836Z,63.04
2016-08-12T09:11:47.135Z,62.99
2016-08-12T09:13:40.890Z,63.09
2016-08-12T09:14:44.614Z,63.11
2016-08-12T09:15:43.005Z,62.77
2016-08-12T09:16:42.738Z,62.66
2016-08-12T09:17:46.137Z,62.62
2016-08-12T09:18:37.809Z,62.54
2016-08-12T09:19:44.783Z,62.58
2016-08-12T09:20:44.527Z,62.61
2016-08-12T09:21:44.170Z,62.72
2016-08-12T09:22:40.451Z,62.60
2016-08-12T09:23:47.181Z,62.63
2016-08-12T09:24:43.850Z,62.58
2016-08-12T09:25:41.787Z,62.57
2016-08-12T09:26:34.562Z,62.59
2016-08-12T09:27:36.507Z,62.61
2016-08-12T09:29:49.371Z,62.52
2016-08-12T09:31:56.090Z,62.47
2016-08-12T09:33:49.007Z,62.44
2016-08-12T09:34:43.826Z,62.42
2016-08-12T09:35:49.038Z,62.43
2016-08-12T09:36:32.451Z,62.41
2016-08-12T09:37:37.009Z,62.41
2016-08-12T09:38:35.604Z,62.38
2016-08-12T09:39:37.974Z,62.40
2016-08-12T09:40:35.839Z,62.34
2016-08-12T09:41:56.795Z,62.34
2016-08-12T09:43:43.415Z,62.31
2016-08-12T09:44:30.809Z,62.26
2016-08-12T09:45:31.986Z,62.38
2016-08-12T09:46:35.431Z,62.41
2016-08-12T09:47:37.008Z,62.46
2016-08-12T09:48:31.140Z,62.89
2016-08-12T09:49:35.811Z,62.94
2016-08-12T09:50:49.419Z,62.89
2016-08-12T09:51:42.125Z,62.87
2016-08-12T09:52:35.836Z,62.77
2016-08-12T09:54:49.218Z,62.95
2016-08-12T09:55:52.765Z,63.02
2016-08-12T09:56:43.334Z,63.29
2016-08-12T09:57:43.573Z,63.14
2016-08-12T09:58:36.652Z,63.10
2016-08-12T09:59:36.092Z,62.77
2016-08-12T10:00:43.134Z,62.90
2016-08-12T10:01:36.052Z,62.83
2016-08-12T10:02:33.067Z,62.63
2016-08-12T10:03:26.503Z,62.70
2016-08-12T10:04:33.652Z,62.61
2016-08-12T10:05:33.210Z,62.60
2016-08-12T10:06:32.613Z,62.63
2016-08-12T10:07:41.799Z,62.63
2016-08-12T10:08:46.930Z,62.64
2016-08-12T10:09:42.383Z,62.65
2016-08-12T10:10:37.865Z,62.67
2016-08-12T10:11:40.174Z,62.66
2016-08-12T10:12:37.257Z,62.71
2016-08-12T10:13:32.116Z,62.72
2016-08-12T10:14:44.187Z,62.71
2016-08-12T10:15:38.572Z,62.70
2016-08-12T10:16:47.950Z,62.67
2016-08-12T10:17:50.001Z,62.69
2016-08-12T10:18:47.570Z,62.73
2016-08-12T10:19:41.495Z,62.74
2016-08-12T10:20:32.810Z,62.79
2016-08-12T10:21:43.298Z,62.77
2016-08-12T10:22:42.604Z,62.77
2016-08-12T10:23:50.177Z,62.75
2016-08-12T10:24:43.290Z,62.80
2016-08-12T10:25:43.286Z,62.67
2016-08-12T10:26:52.829Z,62.82
2016-08-12T10:27:48.819Z,62.85
2016-08-12T10:28:44.135Z,63.24
2016-08-12T10:29:37.726Z,63.07
2016-08-12T10:30:35.767Z,63.20
2016-08-12T10:32:14.808Z,63.15
2016-08-12T10:32:53.075Z,63.20
2016-08-12T10:33:37.473Z,63.21
2016-08-12T10:34:42.710Z,63.29
2016-08-12T10:35:38.018Z,63.20
2016-08-12T10:36:48.512Z,63.19
2016-08-12T10:37:59.315Z,63.08
2016-08-12T10:38:40.003Z,63.03
2016-08-12T10:39:53.253Z,62.99
2016-08-12T10:40:31.257Z,62.93
2016-08-12T10:41:30.321Z,62.95
2016-08-12T10:42:50.945Z,62.94
2016-08-12T10:43:38.340Z,62.98
2016-08-12T10:44:55.853Z,62.93
2016-08-12T10:46:43.274Z,62.88
2016-08-12T10:47:44.010Z,62.88
2016-08-12T10:48:47.053Z,62.87
2016-08-12T10:50:33.188Z,62.88
2016-08-12T10:51:49.084Z,62.91
2016-08-12T10:52:49.996Z,62.91
2016-08-12T10:53:45.117Z,62.88
2016-08-12T10:54:38.246Z,62.90
2016-08-12T10:55:43.742Z,62.85
2016-08-12T10:56:44.740Z,62.84
2016-08-12T10:57:50.220Z,62.83
2016-08-12T10:58:50.837Z,62.86
2016-08-12T10:59:31.299Z,62.85
2016-08-12T11:00:33.535Z,62.85
2016-08-12T11:01:39.418Z,62.81
2016-08-12T11:02:40.114Z,62.80
2016-08-12T11:03:44.704Z,62.81
2016-08-12T11:04:43.223Z,62.87
2016-08-12T11:05:36.031Z,62.85
2016-08-12T11:06:55.399Z,62.86
2016-08-12T11:07:50.576Z,62.87
2016-08-12T11:08:43.983Z,62.86
2016-08-12T11:09:35.770Z,62.83
2016-08-12T11:10:51.525Z,62.86
2016-08-12T11:11:36.419Z,62.80
2016-08-12T11:12:38.997Z,62.80
2016-08-12T11:14:49.786Z,62.72
2016-08-12T11:15:37.489Z,62.70
2016-08-12T11:16:45.864Z,62.72
2016-08-12T11:17:48.597Z,62.92
2016-08-12T11:18:44.982Z,62.88
2016-08-12T11:19:47.867Z,62.90
2016-08-12T11:20:56.084Z,62.98
2016-08-12T11:21:42.009Z,63.00
2016-08-12T11:23:43.778Z,63.06
2016-08-12T11:24:58.070Z,63.30
2016-08-12T11:25:36.640Z,62.98
2016-08-12T11:26:47.312Z,63.02
2016-08-12T11:27:45.698Z,62.90
2016-08-12T11:28:43.989Z,62.77
2016-08-12T11:29:52.710Z,62.71
2016-08-12T11:30:38.562Z,62.98
2016-08-12T11:31:38.495Z,62.96
2016-08-12T11:32:49.989Z,62.88
2016-08-12T11:33:43.978Z,62.01
2016-08-12T11:34:38.505Z,61.79
2016-08-12T11:35:44.584Z,61.63
2016-08-12T11:36:32.718Z,61.59
2016-08-12T11:37:55.167Z,61.60
2016-08-12T11:38:37.560Z,61.53
2016-08-12T11:39:44.914Z,61.51
2016-08-12T11:41:14.785Z,61.51
2016-08-12T11:41:41.816Z,61.51
2016-08-12T11:42:52.050Z,61.51
2016-08-12T11:43:37.899Z,62.43
2016-08-12T11:44:38.578Z,62.66
2016-08-12T11:46:15.734Z,62.79
2016-08-12T11:46:46.136Z,62.80
2016-08-12T11:47:57.081Z,62.86
2016-08-12T11:48:50.482Z,62.84
2016-08-12T11:49:37.992Z,62.84
2016-08-12T11:50:53.500Z,62.81
2016-08-12T11:51:47.046Z,62.82
2016-08-12T11:52:54.626Z,62.81
2016-08-12T11:53:49.117Z,62.82
2016-08-12T11:54:49.272Z,62.82
2016-08-12T11:55:44.857Z,62.83
2016-08-12T11:56:59.202Z,62.86
2016-08-12T11:57:48.209Z,62.82
2016-08-12T11:58:34.061Z,62.82
2016-08-12T11:59:42.431Z,62.84
2016-08-12T12:00:41.004Z,62.85
2016-08-12T12:01:42.981Z,62.83
2016-08-12T12:02:36.661Z,62.81
2016-08-12T12:03:50.191Z,62.79
2016-08-12T12:04:48.999Z,62.82
2016-08-12T12:05:25.453Z,62.78
2016-08-12T12:06:45.288Z,62.79
2016-08-12T12:08:44.384Z,62.76
2016-08-12T12:09:54.722Z,62.85
2016-08-12T12:11:12.256Z,62.87
2016-08-12T12:11:44.331Z,62.81
2016-08-12T12:12:44.313Z,62.78
2016-08-12T12:13:51.812Z,62.73
2016-08-12T12:14:51.402Z,62.84
2016-08-12T12:15:49.360Z,62.82
2016-08-12T12:16:50.301Z,62.89
2016-08-12T12:17:50.328Z,62.97
2016-08-12T12:19:45.119Z,63.00
2016-08-12T12:20:57.736Z,63.00
2016-08-12T12:21:44.537Z,63.00
2016-08-12T12:22:55.422Z,62.97
2016-08-12T12:23:41.635Z,62.98
2016-08-12T12:25:50.714Z,62.95
2016-08-12T12:26:43.183Z,62.92
2016-08-12T12:27:43.293Z,62.92
2016-08-12T12:28:33.550Z,62.94
2016-08-12T12:31:39.934Z,62.90
2016-08-12T12:32:47.676Z,62.86
2016-08-12T12:33:33.605Z,62.86
2016-08-12T12:34:27.950Z,62.85
2016-08-12T12:35:44.333Z,62.84
2016-08-12T12:36:50.290Z,62.84
2016-08-12T12:37:48.475Z,62.77
2016-08-12T12:38:49.959Z,62.80
2016-08-12T12:39:52.590Z,62.82
2016-08-12T12:40:47.547Z,62.79
2016-08-12T12:41:33.667Z,62.80
2016-08-12T12:42:44.489Z,62.76
2016-08-12T12:43:48.699Z,62.85
2016-08-12T12:44:52.740Z,62.89
2016-08-12T12:45:55.847Z,63.01
2016-08-12T12:47:54.460Z,63.14
2016-08-12T12:48:53.049Z,63.19
2016-08-12T12:50:52.295Z,63.37
2016-08-12T12:51:52.313Z,63.40
2016-08-12T12:52:59.067Z,63.41
2016-08-12T12:53:48.636Z,63.42
2016-08-12T12:54:44.990Z,63.51
2016-08-12T12:55:42.548Z,63.49
2016-08-12T12:56:33.212Z,63.49
2016-08-12T12:57:48.500Z,63.44
2016-08-12T12:59:57.009Z,63.45
2016-08-12T13:00:38.726Z,63.42
2016-08-12T13:01:54.370Z,63.54
2016-08-12T13:02:39.317Z,63.54
2016-08-12T13:03:36.687Z,63.62
2016-08-12T13:04:41.181Z,63.63
2016-08-12T13:05:36.462Z,63.62
2016-08-12T13:06:48.100Z,63.62
2016-08-12T13:07:40.692Z,63.60
2016-08-12T13:09:48.692Z,63.64
2016-08-12T13:10:41.926Z,63.62
2016-08-12T13:11:46.798Z,63.65
2016-08-12T13:12:37.885Z,63.63
2016-08-12T13:13:41.852Z,63.60
2016-08-12T13:14:50.673Z,63.57
2016-08-12T13:15:40.405Z,63.54
2016-08-12T13:16:41.966Z,63.55
2016-08-12T13:18:02.486Z,63.55
2016-08-12T13:18:45.967Z,63.52
2016-08-12T13:19:39.359Z,63.48
2016-08-12T13:20:31.011Z,63.53
2016-08-12T13:21:36.263Z,63.57
2016-08-12T13:22:41.615Z,63.55
2016-08-12T13:23:38.520Z,63.46
2016-08-12T13:24:40.117Z,63.53
2016-08-12T13:25:44.824Z,63.65
2016-08-12T13:26:43.960Z,63.66
2016-08-12T13:27:31.564Z,63.78
2016-08-12T13:28:35.815Z,63.70
2016-08-12T13:29:57.860Z,63.67
2016-08-12T13:30:41.542Z,63.62
2016-08-12T13:32:42.353Z,63.62
2016-08-12T13:33:42.391Z,63.58
2016-08-12T13:34:32.186Z,63.59
2016-08-12T13:35:49.258Z,63.56
2016-08-12T13:36:39.250Z,63.52
2016-08-12T13:38:16.020Z,63.51
2016-08-12T13:38:41.107Z,63.49
2016-08-12T13:39:42.345Z,63.49
2016-08-12T13:40:43.454Z,63.48
2016-08-12T13:41:31.955Z,63.50
2016-08-12T13:42:48.066Z,63.46
2016-08-12T13:43:36.971Z,63.46
2016-08-12T13:44:36.448Z,63.40
2016-08-12T13:45:52.515Z,63.44
2016-08-12T13:46:56.962Z,63.42
2016-08-12T13:48:03.080Z,63.47
2016-08-12T13:48:52.548Z,63.42
2016-08-12T13:49:42.625Z,63.40
2016-08-12T13:50:54.427Z,63.41
2016-08-12T13:51:42.339Z,63.42
2016-08-12T13:52:42.456Z,63.42
2016-08-12T13:53:42.840Z,63.41
2016-08-12T13:55:47.518Z,63.41
2016-08-12T13:56:41.574Z,63.36